Lockhart, Minnesota
Current Conditions -  °F | °C
As of 2:35 AM on Friday 24 Oct 2014 (Local Time) from K3N8 Reporting Station
Clear Clear  
Wind Chill: 46°   Ceiling: Unl
Heat Index: 50°   Visibility: 10mi
Dew Point: 43°   Wind: 10mph
Humidity: 77%   Direction: 190°S
Pressure: 29.82"   Gusts: NA
Location:  47.3701°N, 96.4867°W
Report Text: K3N8 240735Z AUTO 19009KT 10SM CLR 10/06 A2982 RMK AO2 T00990061
Loading
Personal Weather Stations






























Interactive Weather Map
Tropical Storm Tracking
New forecast layout! Learn more

10-Day Weather Forecast

Advertisements
Track Severe Weather on mobile